Time;durP1;ratioP1;P1;durP2;ratioP2;P2;SDS_P1;SDS_P2;PMS_P1;PMS_P2;Temp;Humidity;BMP_temperature;BMP_pressure;BME280_temperature;BME280_humidity;BME280_pressure;Samples;Min_cycle;Max_cycle;Signal;HPM_P1;HPM_P2
2021/09/02 00:02:24;;;;;;;4.68;1.60;;;12.50;99.90;;;;;;5098764;28;20111;-67
2021/09/02 00:04:49;;;;;;;1.88;1.33;;;12.50;99.90;;;;;;5095278;28;20043;-67
2021/09/02 00:07:15;;;;;;;2.30;1.52;;;12.50;99.90;;;;;;5096323;28;20046;-67
2021/09/02 00:09:41;;;;;;;2.45;1.23;;;12.40;99.90;;;;;;5097282;28;20036;-67
2021/09/02 00:12:06;;;;;;;3.92;2.05;;;12.30;99.90;;;;;;5127764;27;20036;-67
2021/09/02 00:14:32;;;;;;;1.75;0.90;;;12.30;99.90;;;;;;5095784;28;20047;-67
2021/09/02 00:16:58;;;;;;;2.67;0.80;;;12.30;99.90;;;;;;5110385;27;20032;-67
2021/09/02 00:19:23;;;;;;;0.93;0.70;;;12.30;99.90;;;;;;5095449;28;20043;-67
2021/09/02 00:21:49;;;;;;;2.00;1.27;;;12.20;99.90;;;;;;5094465;28;20051;-67
2021/09/02 00:24:14;;;;;;;3.67;1.63;;;12.20;99.90;;;;;;5096054;28;20040;-67
2021/09/02 00:26:42;;;;;;;2.30;1.20;;;12.10;99.90;;;;;;5097465;28;20054;-67
2021/09/02 00:29:08;;;;;;;4.20;1.75;;;12.10;99.90;;;;;;5094808;28;20044;-67
2021/09/02 00:31:34;;;;;;;3.15;1.88;;;12.10;99.90;;;;;;5126524;27;20043;-67
2021/09/02 00:33:59;;;;;;;1.85;1.75;;;12.10;99.90;;;;;;5096468;28;20043;-67
2021/09/02 00:36:25;;;;;;;3.03;2.38;;;12.10;99.90;;;;;;5096221;28;20472;-67
2021/09/02 00:38:50;;;;;;;3.17;2.10;;;11.90;99.90;;;;;;5097933;28;20036;-67
2021/09/02 00:41:16;;;;;;;1.80;1.70;;;11.90;99.90;;;;;;5094379;28;20044;-67
2021/09/02 00:43:43;;;;;;;1.38;0.68;;;11.80;99.90;;;;;;5099045;28;20043;-67
2021/09/02 00:46:10;;;;;;;0.47;0.30;;;11.80;99.90;;;;;;5102784;28;20035;-67
2021/09/02 00:48:36;;;;;;;2.45;1.45;;;11.70;99.90;;;;;;5098385;28;20043;-68
2021/09/02 00:51:05;;;;;;;2.70;1.60;;;11.70;99.90;;;;;;5094190;28;20035;-68
2021/09/02 00:53:31;;;;;;;4.03;2.80;;;11.60;99.90;;;;;;5096091;28;20088;-67
2021/09/02 00:55:56;;;;;;;6.40;3.00;;;11.70;99.90;;;;;;5097292;28;20116;-67
2021/09/02 00:58:22;;;;;;;3.55;1.92;;;11.70;99.90;;;;;;5095773;28;20032;-68
2021/09/02 01:00:48;;;;;;;2.28;1.58;;;11.60;99.90;;;;;;5097960;28;20039;-68
2021/09/02 01:03:18;;;;;;;1.50;1.40;;;11.60;99.90;;;;;;5098105;28;20044;-68
2021/09/02 01:05:45;;;;;;;1.58;1.05;;;11.60;99.90;;;;;;5095311;28;20056;-68
2021/09/02 01:08:11;;;;;;;1.50;1.25;;;11.50;99.90;;;;;;5095204;28;20560;-68
2021/09/02 01:10:38;;;;;;;4.30;1.10;;;11.50;99.90;;;;;;5094896;28;20148;-68
2021/09/02 01:13:04;;;;;;;4.60;2.20;;;11.40;99.90;;;;;;5097374;28;20044;-68
2021/09/02 01:15:29;;;;;;;2.30;2.10;;;11.40;99.90;;;;;;5096579;28;20042;-67
2021/09/02 01:17:58;;;;;;;3.72;1.85;;;11.40;99.90;;;;;;5096663;28;20042;-68
2021/09/02 01:20:26;;;;;;;4.53;2.17;;;11.30;99.90;;;;;;5095562;28;20097;-68
2021/09/02 01:22:54;;;;;;;1.85;1.63;;;11.30;99.90;;;;;;5097111;28;20036;-68
2021/09/02 01:25:23;;;;;;;2.85;2.08;;;11.30;99.90;;;;;;5101375;28;20766;-68
2021/09/02 01:27:51;;;;;;;2.78;1.60;;;11.30;99.90;;;;;;5100056;28;20397;-68
2021/09/02 01:30:18;;;;;;;2.17;0.80;;;11.30;99.90;;;;;;5099253;28;20127;-68
2021/09/02 01:32:46;;;;;;;0.80;0.50;;;11.20;99.90;;;;;;5099576;28;20066;-68
2021/09/02 01:35:15;;;;;;;3.38;1.20;;;11.20;99.90;;;;;;5097139;28;20043;-67
2021/09/02 01:37:58;;;;;;;2.05;1.25;;;11.10;99.90;;;;;;5100656;28;20359;-68
2021/09/02 01:40:34;;;;;;;4.35;1.50;;;11.10;99.90;;;;;;5097202;28;20059;-68
2021/09/02 01:43:00;;;;;;;;;;;11.10;99.90;;;;;;5097113;28;20040;-68
2021/09/02 01:45:27;;;;;;;2.58;1.20;;;11.10;99.90;;;;;;5096205;28;19934;-68
2021/09/02 01:48:02;;;;;;;3.38;1.00;;;11.10;99.90;;;;;;5093760;28;20035;-68
2021/09/02 01:50:30;;;;;;;3.08;1.30;;;11.10;99.90;;;;;;5093213;28;20036;-68
2021/09/02 01:52:57;;;;;;;1.55;1.15;;;11.10;99.90;;;;;;5128099;27;21618;-67
2021/09/02 01:55:24;;;;;;;3.38;1.40;;;11.00;99.90;;;;;;5099236;28;20497;-67
2021/09/02 01:57:50;;;;;;;2.05;1.80;;;11.00;99.90;;;;;;5095021;28;20522;-68
2021/09/02 02:00:17;;;;;;;1.90;1.17;;;11.00;99.90;;;;;;5097774;28;20074;-68
2021/09/02 02:02:43;;;;;;;1.70;0.63;;;11.00;99.90;;;;;;5099938;28;20035;-67
2021/09/02 02:05:10;;;;;;;2.25;0.55;;;11.00;99.90;;;;;;5099551;28;20048;-68
2021/09/02 02:07:37;;;;;;;1.50;1.10;;;10.90;99.90;;;;;;5098469;28;20413;-67
2021/09/02 02:10:12;;;;;;;1.58;1.05;;;10.90;99.90;;;;;;5096105;28;20386;-67
2021/09/02 02:12:37;;;;;;;3.00;1.52;;;10.90;99.90;;;;;;5097747;28;20038;-67
2021/09/02 02:15:04;;;;;;;1.95;1.67;;;10.80;99.90;;;;;;5100363;28;20402;-67
2021/09/02 02:17:30;;;;;;;7.40;3.45;;;10.80;99.90;;;;;;5099983;28;20052;-67
2021/09/02 02:19:55;;;;;;;3.17;2.55;;;10.80;99.90;;;;;;5097437;28;20042;-67
2021/09/02 02:22:21;;;;;;;4.03;2.95;;;10.80;99.90;;;;;;5127326;27;20043;-67
2021/09/02 02:24:46;;;;;;;6.95;2.85;;;10.90;99.90;;;;;;5107400;27;20040;-67
2021/09/02 02:27:12;;;;;;;4.30;2.90;;;10.90;99.90;;;;;;5104800;28;20118;-67
2021/09/02 02:29:38;;;;;;;2.47;1.67;;;10.90;99.90;;;;;;5102140;28;20037;-67
2021/09/02 02:32:03;;;;;;;5.85;2.65;;;10.90;99.90;;;;;;5101312;28;20046;-67
2021/09/02 02:34:29;;;;;;;4.22;2.55;;;11.00;99.90;;;;;;5100972;28;20126;-67
2021/09/02 02:36:55;;;;;;;6.32;2.00;;;11.00;99.90;;;;;;5100889;28;20028;-67
2021/09/02 02:39:21;;;;;;;0.90;0.60;;;11.00;99.90;;;;;;5104423;27;20089;-67
2021/09/02 02:41:46;;;;;;;1.38;0.60;;;10.90;99.90;;;;;;5103429;28;20040;-68
2021/09/02 02:44:12;;;;;;;2.60;0.70;;;10.90;99.90;;;;;;5084811;28;20042;-68
2021/09/02 02:46:37;;;;;;;2.47;0.95;;;10.80;99.90;;;;;;5102309;28;20112;-68
2021/09/02 02:49:03;;;;;;;2.42;1.13;;;10.80;99.90;;;;;;5103509;28;20062;-68
2021/09/02 02:51:29;;;;;;;1.67;1.15;;;10.80;99.90;;;;;;5103333;28;20054;-67
2021/09/02 02:53:55;;;;;;;2.28;1.35;;;10.70;99.90;;;;;;5101937;28;20043;-67
2021/09/02 02:56:21;;;;;;;3.88;1.42;;;10.70;99.90;;;;;;5102749;28;20031;-67
2021/09/02 02:58:48;;;;;;;3.40;1.80;;;10.70;99.90;;;;;;5100073;28;20050;-67
2021/09/02 03:01:14;;;;;;;4.20;1.67;;;10.70;99.90;;;;;;5103146;28;20032;-68
2021/09/02 03:03:39;;;;;;;1.88;1.45;;;10.70;99.90;;;;;;5106831;28;20048;-68
2021/09/02 03:06:05;;;;;;;2.25;1.23;;;10.60;99.90;;;;;;5102665;28;20159;-68
2021/09/02 03:08:31;;;;;;;1.00;0.68;;;10.70;99.90;;;;;;5100580;28;20115;-68
2021/09/02 03:10:56;;;;;;;2.83;1.10;;;10.70;99.90;;;;;;5102243;28;20482;-67
2021/09/02 03:13:22;;;;;;;2.10;1.90;;;10.70;99.90;;;;;;5101330;28;21790;-67
2021/09/02 03:15:48;;;;;;;2.88;1.92;;;10.60;99.90;;;;;;5103889;28;20050;-67
2021/09/02 03:18:13;;;;;;;1.00;0.80;;;10.70;99.90;;;;;;5101862;28;20036;-67
2021/09/02 03:20:39;;;;;;;2.65;1.27;;;10.70;99.90;;;;;;5100518;28;20040;-67
2021/09/02 03:23:04;;;;;;;2.25;1.50;;;10.60;99.90;;;;;;5103893;27;20032;-67
2021/09/02 03:25:30;;;;;;;1.67;1.45;;;10.70;99.90;;;;;;5097985;28;20479;-67
2021/09/02 03:27:56;;;;;;;1.55;1.42;;;10.70;99.90;;;;;;5100096;28;20036;-67
2021/09/02 03:30:21;;;;;;;2.13;1.60;;;10.70;99.90;;;;;;5101458;27;20405;-67
2021/09/02 03:32:47;;;;;;;3.70;2.40;;;10.60;99.90;;;;;;5100144;28;20039;-68
2021/09/02 03:35:12;;;;;;;3.67;2.15;;;10.50;99.90;;;;;;5105130;27;20040;-67
2021/09/02 03:37:38;;;;;;;2.22;1.38;;;10.60;99.90;;;;;;5130904;27;20047;-68
2021/09/02 03:40:05;;;;;;;2.17;1.23;;;10.60;99.90;;;;;;5106109;28;20048;-68
2021/09/02 03:42:32;;;;;;;2.47;1.30;;;10.50;99.90;;;;;;5106550;28;20039;-68
2021/09/02 03:44:58;;;;;;;4.32;2.85;;;10.60;99.90;;;;;;5105440;28;20043;-68
2021/09/02 03:47:23;;;;;;;4.45;2.75;;;10.70;99.90;;;;;;5106867;28;20070;-67
2021/09/02 03:49:49;;;;;;;3.45;2.67;;;10.70;99.90;;;;;;5103646;28;20043;-68
2021/09/02 03:52:14;;;;;;;3.28;2.20;;;10.80;99.90;;;;;;5105790;28;20074;-68
2021/09/02 03:54:40;;;;;;;3.03;2.33;;;10.80;99.90;;;;;;5104448;28;20047;-68
2021/09/02 03:57:06;;;;;;;5.30;2.17;;;10.80;99.90;;;;;;5107826;28;20047;-67
2021/09/02 03:59:31;;;;;;;2.83;1.92;;;10.70;99.90;;;;;;5108231;28;20039;-67
2021/09/02 04:01:57;;;;;;;3.15;2.00;;;10.80;99.90;;;;;;5104115;28;20203;-67
2021/09/02 04:04:22;;;;;;;2.78;2.05;;;10.80;99.90;;;;;;5102866;28;20052;-67
2021/09/02 04:06:48;;;;;;;4.30;2.30;;;10.80;99.90;;;;;;5103336;28;20035;-67
2021/09/02 04:09:14;;;;;;;2.55;2.05;;;10.80;99.90;;;;;;5102281;28;20036;-67
2021/09/02 04:11:39;;;;;;;3.58;2.60;;;10.90;99.90;;;;;;5104804;28;20040;-67
2021/09/02 04:14:05;;;;;;;2.85;2.30;;;11.00;99.90;;;;;;5097775;28;20463;-67
2021/09/02 04:16:31;;;;;;;4.50;2.20;;;11.00;99.90;;;;;;5100991;28;20068;-68
2021/09/02 04:18:57;;;;;;;4.07;2.08;;;11.10;99.90;;;;;;5101370;27;20539;-68
2021/09/02 04:21:22;;;;;;;5.75;2.83;;;11.10;99.90;;;;;;5103292;28;20320;-68
2021/09/02 04:23:49;;;;;;;3.13;2.83;;;11.20;99.90;;;;;;5085587;28;20040;-68
2021/09/02 04:26:15;;;;;;;4.13;2.40;;;11.20;99.90;;;;;;5102822;28;20066;-68
2021/09/02 04:28:41;;;;;;;2.63;1.88;;;11.30;99.90;;;;;;5104253;28;20069;-68
2021/09/02 04:31:06;;;;;;;8.80;2.30;;;11.30;99.90;;;;;;5104889;28;20027;-68
2021/09/02 04:33:32;;;;;;;3.30;2.35;;;11.20;99.90;;;;;;5102267;28;20046;-68
2021/09/02 04:35:58;;;;;;;5.60;2.38;;;11.20;99.90;;;;;;5099668;28;20448;-68
2021/09/02 04:38:24;;;;;;;5.63;3.40;;;11.20;99.90;;;;;;5104983;27;20027;-68
2021/09/02 04:40:51;;;;;;;5.88;3.47;;;11.30;99.90;;;;;;5098410;27;20046;-68
2021/09/02 04:43:17;;;;;;;6.68;4.53;;;11.30;99.90;;;;;;5126853;27;20040;-68
2021/09/02 04:45:43;;;;;;;6.07;4.03;;;11.40;99.90;;;;;;5110952;27;20134;-67
2021/09/02 04:48:16;;;;;;;7.38;4.13;;;11.40;99.90;;;;;;5132267;27;20147;-68
2021/09/02 04:50:43;;;;;;;5.85;4.45;;;11.50;99.90;;;;;;5112314;27;20075;-68
2021/09/02 04:53:09;;;;;;;10.18;5.70;;;11.60;99.90;;;;;;5131413;27;20048;-68
2021/09/02 04:55:34;;;;;;;11.85;5.90;;;11.60;99.90;;;;;;5099648;28;20042;-68
2021/09/02 04:58:06;;;;;;;11.18;6.57;;;11.70;99.90;;;;;;5105339;27;20554;-68
2021/09/02 05:00:32;;;;;;;12.57;6.32;;;11.80;99.90;;;;;;5102915;27;20497;-68
2021/09/02 05:02:59;;;;;;;11.38;6.45;;;11.80;99.90;;;;;;5098013;28;20423;-68
2021/09/02 05:05:25;;;;;;;10.27;6.10;;;11.90;99.90;;;;;;5095277;28;20401;-68
2021/09/02 05:07:50;;;;;;;10.52;6.32;;;11.90;99.90;;;;;;5097500;28;20069;-68
2021/09/02 05:10:16;;;;;;;15.27;7.07;;;12.10;99.90;;;;;;5099485;28;20043;-68
2021/09/02 05:12:41;;;;;;;16.33;6.53;;;12.10;99.90;;;;;;5096294;28;20128;-68
2021/09/02 05:15:07;;;;;;;14.15;7.43;;;12.20;99.90;;;;;;5097864;28;20063;-68
2021/09/02 05:17:33;;;;;;;11.75;6.15;;;12.20;99.90;;;;;;5097946;28;20035;-68
2021/09/02 05:19:59;;;;;;;10.93;6.30;;;12.30;99.90;;;;;;5095679;27;20469;-68
2021/09/02 05:22:25;;;;;;;14.48;6.88;;;12.30;99.90;;;;;;5097905;27;20085;-68
2021/09/02 05:24:50;;;;;;;26.58;7.22;;;12.30;99.90;;;;;;5096245;28;20051;-68
2021/09/02 05:27:16;;;;;;;23.17;7.57;;;12.50;99.90;;;;;;5126584;27;20036;-68
2021/09/02 05:29:42;;;;;;;18.63;6.45;;;12.50;99.90;;;;;;5098881;28;20027;-68
2021/09/02 05:32:08;;;;;;;12.23;6.25;;;12.60;99.90;;;;;;5096413;27;20032;-68
2021/09/02 05:34:33;;;;;;;13.43;5.70;;;12.60;99.90;;;;;;5097080;28;20046;-68
2021/09/02 05:36:59;;;;;;;12.65;6.10;;;12.60;99.90;;;;;;5096692;28;20040;-67
2021/09/02 05:39:24;;;;;;;12.27;6.20;;;12.60;99.90;;;;;;5093254;28;20058;-68
2021/09/02 05:41:50;;;;;;;12.05;6.55;;;12.70;99.90;;;;;;5095932;28;20039;-68
2021/09/02 05:44:16;;;;;;;13.02;6.72;;;12.80;99.90;;;;;;5095709;28;20032;-67
2021/09/02 05:46:42;;;;;;;15.77;6.90;;;12.80;99.90;;;;;;5081171;28;20366;-67
2021/09/02 05:49:08;;;;;;;14.38;6.93;;;12.80;99.90;;;;;;5100126;28;20038;-67
2021/09/02 05:51:34;;;;;;;19.50;7.25;;;12.90;99.90;;;;;;5094790;28;20115;-67
2021/09/02 05:53:59;;;;;;;16.77;7.50;;;13.00;99.90;;;;;;5096337;28;20063;-68
2021/09/02 05:56:25;;;;;;;11.63;7.00;;;13.00;99.90;;;;;;5097439;28;20067;-68
2021/09/02 05:58:51;;;;;;;16.60;7.03;;;13.00;99.90;;;;;;5100118;28;20218;-68
2021/09/02 06:01:16;;;;;;;11.63;6.57;;;13.10;99.90;;;;;;5101738;27;20043;-68
2021/09/02 06:03:43;;;;;;;11.38;5.65;;;13.10;99.90;;;;;;5096449;27;20045;-68
2021/09/02 06:06:09;;;;;;;14.35;7.88;;;13.20;99.90;;;;;;5095644;27;20043;-68
2021/09/02 06:08:35;;;;;;;11.50;7.45;;;13.20;99.90;;;;;;5099494;27;20036;-68
2021/09/02 06:11:03;;;;;;;18.30;8.13;;;13.30;99.90;;;;;;5096487;27;20036;-68
2021/09/02 06:13:29;;;;;;;11.20;6.68;;;13.30;99.90;;;;;;5097777;28;20055;-68
2021/09/02 06:15:55;;;;;;;12.07;7.38;;;13.40;99.90;;;;;;5099013;27;20707;-68
2021/09/02 06:18:21;;;;;;;16.95;6.97;;;13.40;99.90;;;;;;5096634;27;23181;-68
2021/09/02 06:20:47;;;;;;;14.40;7.75;;;13.50;99.90;;;;;;5096753;28;20080;-68
2021/09/02 06:23:13;;;;;;;11.57;6.43;;;13.50;99.90;;;;;;5095080;28;20043;-68
2021/09/02 06:25:38;;;;;;;17.45;7.35;;;13.60;99.90;;;;;;5097779;28;20036;-68
2021/09/02 06:28:04;;;;;;;13.50;7.20;;;13.70;99.90;;;;;;5095878;28;20031;-68
2021/09/02 06:30:30;;;;;;;12.35;7.60;;;13.70;99.90;;;;;;5096789;28;20502;-68
2021/09/02 06:32:56;;;;;;;11.55;6.90;;;13.80;99.90;;;;;;5095399;27;20035;-68
2021/09/02 06:35:22;;;;;;;18.75;6.82;;;13.80;99.90;;;;;;5097210;27;20046;-68
2021/09/02 06:37:48;;;;;;;10.80;6.72;;;13.90;99.90;;;;;;5125403;27;20051;-68
2021/09/02 06:40:14;;;;;;;12.75;7.25;;;14.00;99.90;;;;;;5097817;28;20078;-68
2021/09/02 06:42:39;;;;;;;11.95;6.90;;;14.10;99.90;;;;;;5094220;27;20040;-68
2021/09/02 06:45:06;;;;;;;13.10;6.93;;;14.10;99.90;;;;;;5094908;27;20424;-68
2021/09/02 06:47:32;;;;;;;13.02;6.93;;;14.30;99.90;;;;;;5093701;27;20040;-68
2021/09/02 06:49:59;;;;;;;14.30;7.07;;;14.30;99.90;;;;;;5082986;27;20039;-68
2021/09/02 06:52:24;;;;;;;12.63;6.55;;;14.40;99.90;;;;;;5081803;27;20042;-68
2021/09/02 06:54:56;;;;;;;15.85;6.72;;;14.50;99.90;;;;;;5083883;27;20091;-68
2021/09/02 06:57:21;;;;;;;11.70;7.50;;;14.50;99.90;;;;;;5088958;27;20036;-69
2021/09/02 06:59:47;;;;;;;16.50;7.30;;;14.60;99.90;;;;;;5094304;27;20083;-68
2021/09/02 07:02:13;;;;;;;15.45;6.85;;;14.70;99.90;;;;;;5094291;27;20028;-68
2021/09/02 07:04:39;;;;;;;14.35;6.82;;;14.70;99.90;;;;;;5095083;28;20059;-68
2021/09/02 07:07:04;;;;;;;10.98;6.97;;;14.80;99.90;;;;;;5094810;27;20048;-68
2021/09/02 07:09:30;;;;;;;17.70;7.15;;;14.80;99.90;;;;;;5092646;28;20051;-68
2021/09/02 07:11:55;;;;;;;17.90;8.40;;;14.90;99.90;;;;;;5098279;27;20051;-68
2021/09/02 07:14:21;;;;;;;13.15;6.88;;;15.00;99.90;;;;;;5097814;27;20035;-68
2021/09/02 07:16:47;;;;;;;12.65;7.93;;;15.00;99.90;;;;;;5096237;27;20082;-68
2021/09/02 07:19:12;;;;;;;13.90;7.45;;;15.10;99.90;;;;;;5094747;28;20127;-68
2021/09/02 07:21:38;;;;;;;18.48;8.68;;;15.20;99.90;;;;;;5094195;28;20045;-68
2021/09/02 07:24:04;;;;;;;15.45;8.82;;;15.30;99.90;;;;;;5095627;27;20036;-68
2021/09/02 07:26:29;;;;;;;15.20;7.03;;;15.30;99.90;;;;;;5094043;27;20039;-68
2021/09/02 07:28:55;;;;;;;15.38;7.38;;;15.40;99.90;;;;;;5096126;28;20086;-68
2021/09/02 07:31:21;;;;;;;14.55;8.95;;;15.40;99.90;;;;;;5093890;28;20039;-68
2021/09/02 07:33:46;;;;;;;11.13;7.80;;;15.50;99.90;;;;;;5093968;27;20038;-68
2021/09/02 07:36:12;;;;;;;14.18;9.27;;;15.60;99.90;;;;;;5094922;28;20104;-68
2021/09/02 07:38:37;;;;;;;12.23;7.50;;;15.60;99.90;;;;;;5097702;27;20115;-68
2021/09/02 07:41:03;;;;;;;24.05;9.43;;;15.70;99.90;;;;;;5094960;28;20036;-68
2021/09/02 07:43:29;;;;;;;15.00;8.73;;;15.80;99.90;;;;;;5095453;28;20089;-68
2021/09/02 07:45:55;;;;;;;14.75;8.70;;;15.80;99.90;;;;;;5098057;28;20047;-68
2021/09/02 07:48:20;;;;;;;11.27;8.27;;;16.00;99.90;;;;;;5097319;28;20044;-68
2021/09/02 07:50:46;;;;;;;19.90;9.38;;;16.00;99.90;;;;;;5093380;28;20048;-68
2021/09/02 07:53:12;;;;;;;14.85;8.98;;;16.00;99.90;;;;;;5093047;28;20064;-68
2021/09/02 07:55:38;;;;;;;20.73;9.70;;;16.00;99.90;;;;;;5094329;28;20064;-68
2021/09/02 07:58:04;;;;;;;15.38;9.07;;;16.10;99.90;;;;;;5124254;27;20039;-68
2021/09/02 08:00:29;;;;;;;20.15;11.52;;;16.20;99.90;;;;;;5092921;27;20112;-68
2021/09/02 08:02:55;;;;;;;19.30;9.98;;;16.30;99.90;;;;;;5093535;27;20607;-68
2021/09/02 08:05:20;;;;;;;21.52;9.90;;;16.40;99.90;;;;;;5125215;27;20101;-68
2021/09/02 08:07:53;;;;;;;17.65;9.77;;;16.50;99.90;;;;;;5092915;28;20039;-68
2021/09/02 08:10:21;;;;;;;19.15;9.43;;;16.50;99.90;;;;;;5093776;27;20123;-68
2021/09/02 08:12:47;;;;;;;22.83;10.40;;;16.60;99.90;;;;;;5074097;28;20168;-68
2021/09/02 08:15:13;;;;;;;17.15;9.48;;;16.70;99.90;;;;;;5096541;27;20043;-68
2021/09/02 08:17:39;;;;;;;22.25;8.48;;;16.80;99.90;;;;;;5092166;27;20046;-68
2021/09/02 08:20:06;;;;;;;17.85;8.95;;;16.80;99.90;;;;;;5092277;28;20749;-68
2021/09/02 08:22:32;;;;;;;12.85;8.68;;;16.90;99.90;;;;;;5093729;27;20080;-68
2021/09/02 08:24:58;;;;;;;19.48;9.35;;;16.80;99.90;;;;;;5093293;27;20071;-68
2021/09/02 08:27:23;;;;;;;17.83;8.27;;;16.90;99.90;;;;;;5091758;27;20108;-68
2021/09/02 08:29:49;;;;;;;15.85;7.65;;;17.00;99.90;;;;;;5094119;28;20173;-68
2021/09/02 08:32:15;;;;;;;19.55;8.48;;;17.00;99.90;;;;;;5091502;27;20040;-68
2021/09/02 08:34:40;;;;;;;17.98;7.20;;;17.00;99.90;;;;;;5096163;28;20046;-68
2021/09/02 08:37:06;;;;;;;15.95;6.93;;;17.00;99.90;;;;;;5093283;27;20114;-68
2021/09/02 08:39:31;;;;;;;16.92;7.47;;;17.10;99.90;;;;;;5092923;28;20177;-68
2021/09/02 08:41:57;;;;;;;20.35;7.50;;;17.10;99.90;;;;;;5093382;27;20044;-68
2021/09/02 08:44:24;;;;;;;16.63;6.85;;;17.10;99.90;;;;;;5092468;27;20157;-68
2021/09/02 08:46:50;;;;;;;13.55;7.43;;;17.20;99.90;;;;;;5093813;28;20040;-68
2021/09/02 08:49:21;;;;;;;24.50;8.43;;;17.20;99.90;;;;;;5092239;28;20036;-68
2021/09/02 08:51:48;;;;;;;15.75;7.22;;;17.30;99.90;;;;;;5096451;27;20066;-68
2021/09/02 08:54:14;;;;;;;11.85;6.90;;;17.40;99.90;;;;;;5092847;27;20043;-68
2021/09/02 08:56:40;;;;;;;12.82;6.82;;;17.50;99.90;;;;;;5122244;27;20039;-68
2021/09/02 08:59:05;;;;;;;14.48;6.35;;;17.60;99.90;;;;;;5125242;27;20398;-68
2021/09/02 09:01:31;;;;;;;15.15;6.10;;;17.50;99.90;;;;;;5092340;28;20074;-68
2021/09/02 09:03:57;;;;;;;23.75;7.63;;;17.60;99.90;;;;;;5090348;28;20456;-68
2021/09/02 09:06:27;;;;;;;13.60;6.72;;;17.70;99.90;;;;;;5095698;27;20036;-68
2021/09/02 09:08:54;;;;;;;15.77;6.78;;;17.80;99.90;;;;;;5096075;27;20036;-68
2021/09/02 09:11:24;;;;;;;16.27;6.85;;;17.90;99.90;;;;;;5094599;27;20028;-68
2021/09/02 09:14:07;;;;;;;14.45;6.75;;;18.00;99.90;;;;;;5091419;27;20039;-68
2021/09/02 09:16:49;;;;;;;14.13;5.88;;;18.00;99.90;;;;;;5091303;28;20128;-68
2021/09/02 09:19:43;;;;;;;17.42;7.05;;;18.10;99.90;;;;;;5092148;28;20043;-68
2021/09/02 09:22:12;;;;;;;17.70;6.18;;;18.20;99.90;;;;;;5123875;27;20046;-68
2021/09/02 09:24:41;;;;;;;13.02;6.13;;;18.20;99.90;;;;;;5093213;28;20052;-68
2021/09/02 09:27:08;;;;;;;11.65;5.88;;;18.20;99.90;;;;;;5091720;28;20040;-68
2021/09/02 09:29:34;;;;;;;12.18;6.22;;;18.30;99.90;;;;;;5091386;28;20071;-68
2021/09/02 09:32:16;;;;;;;14.52;6.15;;;18.30;99.90;;;;;;5090195;28;20062;-68
2021/09/02 09:34:52;;;;;;;17.25;6.05;;;18.30;99.90;;;;;;5092439;28;20131;-68
2021/09/02 09:37:20;;;;;;;20.30;8.23;;;18.30;99.90;;;;;;5095475;28;20090;-68
2021/09/02 09:39:48;;;;;;;15.43;7.70;;;18.30;99.90;;;;;;5093029;28;20123;-68
2021/09/02 09:42:16;;;;;;;14.80;6.35;;;18.30;99.90;;;;;;5093525;28;20032;-68
2021/09/02 09:44:42;;;;;;;14.98;7.60;;;18.30;99.90;;;;;;5095183;28;20097;-68
2021/09/02 09:47:13;;;;;;;15.82;8.02;;;18.40;99.90;;;;;;5092462;28;20039;-68
2021/09/02 09:49:41;;;;;;;12.15;7.07;;;18.40;99.90;;;;;;5127249;27;20126;-68
2021/09/02 09:52:26;;;;;;;15.50;7.88;;;18.40;99.90;;;;;;5091663;28;20032;-68
2021/09/02 09:54:55;;;;;;;15.25;6.80;;;18.30;99.90;;;;;;5091273;28;20197;-68
2021/09/02 09:57:21;;;;;;;12.93;7.40;;;18.30;99.90;;;;;;5091095;28;21391;-68
2021/09/02 09:59:47;;;;;;;13.85;7.57;;;18.20;99.90;;;;;;5095494;28;20052;-68
2021/09/02 10:02:13;;;;;;;13.38;7.45;;;18.20;99.90;;;;;;5091445;28;20126;-68
2021/09/02 10:04:41;;;;;;;15.88;8.18;;;18.30;99.90;;;;;;5092179;28;20134;-68
2021/09/02 10:07:09;;;;;;;18.25;7.63;;;18.40;99.90;;;;;;5125691;27;20036;-68
2021/09/02 10:09:35;;;;;;;13.90;8.18;;;18.40;99.90;;;;;;5093845;28;20043;-68
2021/09/02 10:12:04;;;;;;;16.70;8.30;;;18.30;99.90;;;;;;5092545;28;20043;-68
2021/09/02 10:14:30;;;;;;;16.13;8.20;;;18.30;99.90;;;;;;5090495;28;20054;-68
2021/09/02 10:16:57;;;;;;;16.63;8.60;;;18.30;99.90;;;;;;5088847;28;20680;-68
2021/09/02 10:19:25;;;;;;;11.88;8.10;;;18.30;99.90;;;;;;5093710;28;20040;-68
2021/09/02 10:21:52;;;;;;;13.73;8.07;;;18.40;99.90;;;;;;5094940;28;20453;-68
2021/09/02 10:24:48;;;;;;;15.35;8.10;;;18.30;99.90;;;;;;5090665;28;20064;-68
2021/09/02 10:27:17;;;;;;;15.15;7.97;;;18.40;99.90;;;;;;5087867;28;21819;-68
2021/09/02 10:29:43;;;;;;;14.32;7.95;;;18.50;99.90;;;;;;5092260;28;20044;-68
2021/09/02 10:32:26;;;;;;;18.05;9.23;;;18.70;99.90;;;;;;5094423;27;20069;-68
2021/09/02 10:35:12;;;;;;;14.00;8.15;;;18.60;99.90;;;;;;5126540;27;20052;-67
2021/09/02 10:37:38;;;;;;;;;;;18.60;99.90;;;;;;5089466;28;20052;-67
2021/09/02 10:40:15;;;;;;;;;;;18.70;99.90;;;;;;5095457;28;19966;-67
2021/09/02 10:42:53;;;;;;;17.67;7.82;;;18.80;99.90;;;;;;5090702;28;19920;-67
2021/09/02 10:45:25;;;;;;;15.10;8.50;;;18.90;99.90;;;;;;5129303;27;20126;-67
2021/09/02 10:47:55;;;;;;;20.15;9.13;;;18.90;99.90;;;;;;5095806;27;20036;-67
2021/09/02 10:50:23;;;;;;;23.58;9.85;;;19.00;99.90;;;;;;5093482;28;20039;-67
2021/09/02 10:52:50;;;;;;;16.40;9.18;;;19.00;99.90;;;;;;5095612;28;20114;-67
2021/09/02 10:55:27;;;;;;;17.42;9.02;;;18.80;99.90;;;;;;5096194;28;20035;-67
2021/09/02 10:57:53;;;;;;;12.85;8.10;;;18.80;99.90;;;;;;5096899;28;20552;-67
2021/09/02 11:00:37;;;;;;;17.15;8.63;;;18.80;99.90;;;;;;5097200;28;20074;-67
2021/09/02 11:03:16;;;;;;;16.08;7.95;;;18.80;99.90;;;;;;5094975;28;20038;-67
2021/09/02 11:05:43;;;;;;;13.52;7.93;;;18.90;99.90;;;;;;5094658;28;20501;-67
2021/09/02 11:08:10;;;;;;;14.30;7.90;;;19.00;99.90;;;;;;5094474;28;20992;-67
2021/09/02 11:10:36;;;;;;;15.32;7.53;;;19.10;99.90;;;;;;5094043;28;20715;-67
2021/09/02 11:13:07;;;;;;;17.65;8.10;;;19.20;99.90;;;;;;5093991;27;20051;-67
2021/09/02 11:15:35;;;;;;;14.48;6.90;;;19.30;99.90;;;;;;5108806;27;20051;-67
2021/09/02 11:18:06;;;;;;;14.80;7.70;;;19.30;99.90;;;;;;5095485;28;20048;-68
2021/09/02 11:20:35;;;;;;;13.27;7.85;;;19.40;99.90;;;;;;5094722;27;20904;-68
2021/09/02 11:23:15;;;;;;;13.18;8.07;;;19.40;99.90;;;;;;5079331;28;20046;-67
2021/09/02 11:25:43;;;;;;;11.82;7.32;;;19.50;99.90;;;;;;5093311;28;20035;-67
2021/09/02 11:28:09;;;;;;;13.48;6.05;;;19.50;99.90;;;;;;5095697;28;20541;-67
2021/09/02 11:30:35;;;;;;;19.67;7.53;;;19.60;99.90;;;;;;5093843;27;20041;-67
2021/09/02 11:33:03;;;;;;;12.95;7.28;;;19.70;99.90;;;;;;5092719;27;20043;-67
2021/09/02 11:35:29;;;;;;;16.00;7.57;;;19.80;99.90;;;;;;5072411;28;20039;-67
2021/09/02 11:37:55;;;;;;;14.80;7.45;;;19.80;99.90;;;;;;5126117;27;20437;-67
2021/09/02 11:40:27;;;;;;;14.10;7.25;;;19.90;99.90;;;;;;5093392;27;20036;-67
2021/09/02 11:42:54;;;;;;;12.18;7.38;;;20.00;99.90;;;;;;5095866;28;20036;-67
2021/09/02 11:45:22;;;;;;;14.35;7.07;;;19.90;99.90;;;;;;5091715;28;20127;-67
2021/09/02 11:47:50;;;;;;;14.65;7.93;;;19.90;99.90;;;;;;5091286;27;20043;-67
2021/09/02 11:50:20;;;;;;;17.17;8.65;;;19.90;99.90;;;;;;5091740;27;20805;-67
2021/09/02 11:52:51;;;;;;;17.38;8.73;;;20.00;99.90;;;;;;5090555;27;20100;-67
2021/09/02 11:55:35;;;;;;;13.32;7.57;;;19.90;99.90;;;;;;5094191;27;20066;-67
2021/09/02 11:58:05;;;;;;;13.73;8.02;;;19.90;99.90;;;;;;5091788;28;20051;-67
2021/09/02 12:00:33;;;;;;;17.05;7.65;;;20.00;99.90;;;;;;5094225;28;20055;-67
2021/09/02 12:03:04;;;;;;;11.93;7.63;;;20.10;99.90;;;;;;5093473;27;20101;-67
2021/09/02 12:05:38;;;;;;;16.42;7.97;;;20.10;99.90;;;;;;5092014;27;20090;-67
2021/09/02 12:08:10;;;;;;;14.52;8.00;;;20.20;99.90;;;;;;5093959;28;20127;-67
2021/09/02 12:10:37;;;;;;;14.15;8.27;;;20.20;99.90;;;;;;5092063;28;20039;-67
2021/09/02 12:13:20;;;;;;;15.32;8.32;;;20.30;99.90;;;;;;5095273;28;20028;-67
2021/09/02 12:16:04;;;;;;;15.13;8.55;;;20.30;99.90;;;;;;5123073;27;20058;-67
2021/09/02 12:18:30;;;;;;;13.07;6.82;;;20.30;99.90;;;;;;5089339;28;20044;-67
2021/09/02 12:21:15;;;;;;;21.73;8.05;;;20.30;99.90;;;;;;5092668;27;20076;-67
2021/09/02 12:23:51;;;;;;;16.55;7.00;;;20.30;99.90;;;;;;5076327;28;20078;-67
2021/09/02 12:26:19;;;;;;;13.45;6.30;;;20.40;99.90;;;;;;5094413;28;20055;-67
2021/09/02 12:28:46;;;;;;;13.30;6.97;;;20.50;99.90;;;;;;5093265;28;20101;-67
2021/09/02 12:31:22;;;;;;;16.67;6.72;;;20.50;99.90;;;;;;5091251;28;20123;-67
2021/09/02 12:33:55;;;;;;;14.98;7.97;;;20.50;99.90;;;;;;5087479;28;20067;-67
2021/09/02 12:36:20;;;;;;;11.52;7.88;;;20.60;99.90;;;;;;5092392;27;20047;-67
2021/09/02 12:38:46;;;;;;;11.02;6.28;;;20.60;99.90;;;;;;5095510;27;20036;-67
2021/09/02 12:41:23;;;;;;;16.63;8.65;;;20.40;99.90;;;;;;5092714;28;20167;-67
2021/09/02 12:44:12;;;;;;;12.63;7.82;;;20.30;99.90;;;;;;5092814;27;20048;-67